createdAt,value
2024-01-01T00:00:33.591Z,93438.00
2024-01-01T00:03:00.506Z,93436.00
2024-01-01T00:05:27.428Z,93437.00
2024-01-01T00:07:54.416Z,93444.00
2024-01-01T00:10:24.403Z,93434.00
2024-01-01T00:12:55.320Z,93434.00
2024-01-01T00:15:22.197Z,93434.00
2024-01-01T00:17:53.903Z,93432.00
2024-01-01T00:20:22.938Z,93424.00
2024-01-01T00:22:52.496Z,93424.00
2024-01-01T00:25:21.930Z,93412.00
2024-01-01T00:27:48.825Z,93421.00
2024-01-01T00:30:18.279Z,93407.00
2024-01-01T00:32:45.323Z,93418.00
2024-01-01T00:35:16.857Z,93416.00
2024-01-01T00:37:46.083Z,93409.00
2024-01-01T00:40:13.212Z,93402.00
2024-01-01T00:42:44.185Z,93401.00
2024-01-01T00:45:11.293Z,93414.00
2024-01-01T00:47:38.836Z,93411.00
2024-01-01T00:50:06.783Z,93403.00
2024-01-01T00:52:34.018Z,93395.00
2024-01-01T00:55:01.405Z,93394.00
2024-01-01T00:57:28.301Z,93389.00
2024-01-01T00:59:57.468Z,93390.00
2024-01-01T01:02:30.027Z,93398.00
2024-01-01T01:05:03.651Z,93397.00
2024-01-01T01:07:33.846Z,93400.00
2024-01-01T01:10:00.901Z,93397.00
2024-01-01T01:12:30.319Z,93396.00
2024-01-01T01:14:57.268Z,93395.00
2024-01-01T01:17:24.250Z,93397.00
2024-01-01T01:19:51.171Z,93411.00
2024-01-01T01:22:18.043Z,93417.00
2024-01-01T01:24:44.918Z,93421.00
2024-01-01T01:27:14.314Z,93432.00
2024-01-01T01:29:46.754Z,93425.00
2024-01-01T01:32:16.631Z,93412.00
2024-01-01T01:34:43.586Z,93424.00
2024-01-01T01:37:13.493Z,93430.00
2024-01-01T01:39:40.431Z,93436.00
2024-01-01T01:42:11.875Z,93436.00
2024-01-01T01:44:38.830Z,93435.00
2024-01-01T01:47:06.239Z,93439.00
2024-01-01T01:49:37.829Z,93436.00
2024-01-01T01:52:05.110Z,93443.00
2024-01-01T01:54:35.876Z,93435.00
2024-01-01T01:57:04.744Z,93433.00
2024-01-01T01:59:34.409Z,93439.00
2024-01-01T02:02:01.558Z,93433.00
2024-01-01T02:04:28.521Z,93440.00
2024-01-01T02:06:55.508Z,93433.00
2024-01-01T02:09:22.496Z,93428.00
2024-01-01T02:11:49.473Z,93424.00
2024-01-01T02:14:19.341Z,93431.00
2024-01-01T02:16:49.461Z,93430.00
2024-01-01T02:19:26.087Z,93436.00
2024-01-01T02:21:56.797Z,93428.00
2024-01-01T02:24:23.761Z,93440.00
2024-01-01T02:26:53.210Z,93427.00
2024-01-01T02:29:20.201Z,93434.00
2024-01-01T02:31:48.116Z,93435.00
2024-01-01T02:34:15.143Z,93438.00
2024-01-01T02:36:42.161Z,93432.00
2024-01-01T02:39:11.299Z,93430.00
2024-01-01T02:41:40.582Z,93427.00
2024-01-01T02:44:10.238Z,93427.00
2024-01-01T02:46:37.322Z,93430.00
2024-01-01T02:49:06.392Z,93442.00
2024-01-01T02:51:33.375Z,93433.00
2024-01-01T02:54:00.323Z,93445.00
2024-01-01T02:56:30.217Z,93443.00
2024-01-01T02:58:57.107Z,93445.00
2024-01-01T03:01:24.029Z,93446.00
2024-01-01T03:03:51.119Z,93439.00
2024-01-01T03:06:20.100Z,93450.00
2024-01-01T03:08:49.674Z,93451.00
2024-01-01T03:11:16.692Z,93447.00
2024-01-01T03:13:46.100Z,93444.00
2024-01-01T03:16:15.996Z,93436.00
2024-01-01T03:18:42.939Z,93439.00
2024-01-01T03:21:09.934Z,93436.00
2024-01-01T03:23:43.834Z,93442.00
2024-01-01T03:26:13.685Z,93441.00
2024-01-01T03:28:43.912Z,93437.00
2024-01-01T03:31:11.270Z,93427.00
2024-01-01T03:33:38.293Z,93433.00
2024-01-01T03:36:08.192Z,93424.00
2024-01-01T03:38:35.058Z,93430.00
2024-01-01T03:41:02.033Z,93399.00
2024-01-01T03:43:31.531Z,93426.00
2024-01-01T03:45:58.581Z,93424.00
2024-01-01T03:48:25.613Z,93424.00
2024-01-01T03:50:55.245Z,93430.00
2024-01-01T03:53:24.279Z,93434.00
2024-01-01T03:55:51.167Z,93412.00
2024-01-01T03:58:20.244Z,93424.00
2024-01-01T04:00:47.238Z,93424.00
2024-01-01T04:03:16.759Z,93413.00
2024-01-01T04:05:43.793Z,93419.00
2024-01-01T04:08:12.898Z,93423.00
2024-01-01T04:10:39.901Z,93429.00
2024-01-01T04:13:06.813Z,93429.00
2024-01-01T04:15:33.726Z,93440.00
2024-01-01T04:18:00.678Z,93437.00
2024-01-01T04:20:27.586Z,93434.00
2024-01-01T04:22:56.805Z,93447.00
2024-01-01T04:25:27.037Z,93446.00
2024-01-01T04:27:56.277Z,93447.00
2024-01-01T04:30:23.167Z,93450.00
2024-01-01T04:32:52.283Z,93443.00
2024-01-01T04:35:21.303Z,93452.00
2024-01-01T04:37:48.694Z,93460.00
2024-01-01T04:40:15.739Z,93460.00
2024-01-01T04:42:42.663Z,93455.00
2024-01-01T04:45:12.389Z,93461.00
2024-01-01T04:47:41.687Z,93462.00
2024-01-01T04:50:10.049Z,93477.00
2024-01-01T04:52:39.375Z,93475.00
2024-01-01T04:55:06.610Z,93481.00
2024-01-01T04:57:33.449Z,93484.00
2024-01-01T05:00:00.398Z,93483.00
2024-01-01T05:02:29.634Z,93487.00
2024-01-01T05:04:56.518Z,93493.00
2024-01-01T05:07:23.442Z,93495.00
2024-01-01T05:09:50.333Z,93508.00
2024-01-01T05:12:19.890Z,93504.00
2024-01-01T05:14:49.253Z,93496.00
2024-01-01T05:17:20.779Z,93509.00
2024-01-01T05:19:51.606Z,93512.00
2024-01-01T05:22:20.929Z,93505.00
2024-01-01T05:24:47.801Z,93518.00
2024-01-01T05:27:17.312Z,93513.00
2024-01-01T05:29:46.885Z,93507.00
2024-01-01T05:32:13.888Z,93510.00
2024-01-01T05:34:46.182Z,93507.00
2024-01-01T05:37:13.147Z,93520.00
2024-01-01T05:39:40.069Z,93514.00
2024-01-01T05:42:07.027Z,93515.00
2024-01-01T05:44:33.918Z,93520.00
2024-01-01T05:47:01.180Z,93514.00
2024-01-01T05:49:28.189Z,93513.00
2024-01-01T05:51:55.135Z,93518.00
2024-01-01T05:54:22.163Z,93517.00
2024-01-01T05:56:49.017Z,93523.00
2024-01-01T05:59:18.496Z,93513.00
2024-01-01T06:01:47.490Z,93521.00
2024-01-01T06:04:14.349Z,93522.00
2024-01-01T06:06:41.217Z,93526.00
2024-01-01T06:09:09.072Z,93532.00
2024-01-01T06:11:38.500Z,93535.00
2024-01-01T06:14:05.447Z,93531.00
2024-01-01T06:16:32.399Z,93532.00
2024-01-01T06:18:59.349Z,93538.00
2024-01-01T06:21:28.483Z,93540.00
2024-01-01T06:23:55.448Z,93551.00
2024-01-01T06:26:22.416Z,93545.00
2024-01-01T06:28:51.847Z,93546.00
2024-01-01T06:31:21.385Z,93558.00
2024-01-01T06:33:50.397Z,93558.00
2024-01-01T06:36:22.338Z,93571.00
2024-01-01T06:38:49.292Z,93566.00
2024-01-01T06:41:18.421Z,93568.00
2024-01-01T06:43:45.499Z,93557.00
2024-01-01T06:46:13.241Z,93557.00
2024-01-01T06:48:40.252Z,93556.00
2024-01-01T06:51:11.767Z,93566.00
2024-01-01T06:53:39.272Z,93572.00
2024-01-01T06:56:06.551Z,93567.00
2024-01-01T06:58:34.164Z,93563.00
2024-01-01T07:01:03.786Z,93564.00
2024-01-01T07:03:33.236Z,93561.00
2024-01-01T07:06:00.231Z,93565.00
2024-01-01T07:08:27.309Z,93559.00
2024-01-01T07:10:54.530Z,93568.00
2024-01-01T07:13:21.473Z,93570.00
2024-01-01T07:15:51.738Z,93573.00
2024-01-01T07:18:21.729Z,93583.00
2024-01-01T07:20:53.271Z,93578.00
2024-01-01T07:23:22.762Z,93589.00
2024-01-01T07:25:51.177Z,93590.00
2024-01-01T07:28:18.055Z,93563.00
2024-01-01T07:30:45.134Z,93582.00
2024-01-01T07:33:14.632Z,93590.00
2024-01-01T07:35:44.313Z,93585.00
2024-01-01T07:38:11.319Z,93597.00
2024-01-01T07:40:43.323Z,93592.00
2024-01-01T07:43:12.555Z,93578.00
2024-01-01T07:45:41.819Z,93601.00
2024-01-01T07:48:11.219Z,93604.00
2024-01-01T07:50:38.544Z,93615.00
2024-01-01T07:53:05.584Z,93612.00
2024-01-01T07:55:37.905Z,93622.00
2024-01-01T07:58:10.544Z,93634.00
2024-01-01T08:00:37.564Z,93635.00
2024-01-01T08:03:05.810Z,93635.00
2024-01-01T08:05:32.812Z,93641.00
2024-01-01T08:08:04.745Z,93639.00
2024-01-01T08:10:36.354Z,93635.00
2024-01-01T08:13:03.908Z,93631.00
2024-01-01T08:15:33.429Z,93629.00
2024-01-01T08:18:00.749Z,93638.00
2024-01-01T08:20:32.622Z,93625.00
2024-01-01T08:23:01.782Z,93625.00
2024-01-01T08:25:28.816Z,93626.00
2024-01-01T08:27:55.794Z,93622.00
2024-01-01T08:30:22.808Z,93642.00
2024-01-01T08:32:49.898Z,93642.00
2024-01-01T08:35:19.206Z,93649.00
2024-01-01T08:37:46.309Z,93642.00
2024-01-01T08:40:15.831Z,93652.00
2024-01-01T08:42:48.451Z,93649.00
2024-01-01T08:45:20.756Z,93660.00
2024-01-01T08:47:50.441Z,93655.00
2024-01-01T08:50:20.203Z,93671.00
2024-01-01T08:52:49.852Z,93664.00
2024-01-01T08:55:18.970Z,93664.00
2024-01-01T08:57:45.901Z,93664.00
2024-01-01T09:00:15.971Z,93660.00
2024-01-01T09:02:45.454Z,93664.00
2024-01-01T09:05:12.399Z,93644.00
2024-01-01T09:07:41.812Z,93653.00
2024-01-01T09:10:11.873Z,93650.00
2024-01-01T09:12:38.866Z,93665.00
2024-01-01T09:15:06.593Z,93655.00
2024-01-01T09:17:38.470Z,93654.00
2024-01-01T09:20:06.707Z,93665.00
2024-01-01T09:22:36.137Z,93664.00
2024-01-01T09:25:03.310Z,93666.00
2024-01-01T09:27:30.208Z,93667.00
2024-01-01T09:29:59.357Z,93666.00
2024-01-01T09:32:26.335Z,93676.00
2024-01-01T09:34:55.821Z,93671.00
2024-01-01T09:37:22.727Z,93674.00
2024-01-01T09:39:52.290Z,93675.00
2024-01-01T09:42:21.345Z,93672.00
2024-01-01T09:44:51.419Z,93683.00
2024-01-01T09:47:18.423Z,93688.00
2024-01-01T09:49:47.920Z,93697.00
2024-01-01T09:52:15.881Z,93691.00
2024-01-01T09:54:42.993Z,93701.00
2024-01-01T09:57:10.048Z,93688.00
2024-01-01T09:59:41.507Z,93696.00
2024-01-01T10:02:10.456Z,93693.00
2024-01-01T10:04:42.344Z,93688.00
2024-01-01T10:07:15.329Z,93704.00
2024-01-01T10:09:49.620Z,93707.00
2024-01-01T10:12:22.768Z,93707.00
2024-01-01T10:14:51.633Z,93702.00
2024-01-01T10:17:22.141Z,93697.00
2024-01-01T10:19:56.120Z,93698.00
2024-01-01T10:22:24.816Z,93698.00
2024-01-01T10:24:56.708Z,93699.00
2024-01-01T10:27:26.063Z,93695.00
2024-01-01T10:29:53.117Z,93692.00
2024-01-01T10:32:22.641Z,93691.00
2024-01-01T10:34:52.128Z,93688.00
2024-01-01T10:37:24.616Z,93696.00
2024-01-01T10:39:52.047Z,93695.00
2024-01-01T10:42:26.910Z,93685.00
2024-01-01T10:44:53.872Z,93687.00
2024-01-01T10:47:22.225Z,93678.00
2024-01-01T10:50:17.841Z,93685.00
2024-01-01T10:53:08.463Z,93680.00
2024-01-01T10:55:55.444Z,93672.00
2024-01-01T10:58:55.289Z,93669.00
2024-01-01T11:01:27.734Z,93675.00
2024-01-01T11:03:54.972Z,93675.00
2024-01-01T11:06:29.426Z,93683.00
2024-01-01T11:09:00.153Z,93676.00
2024-01-01T11:11:33.630Z,93687.00
2024-01-01T11:14:02.020Z,93681.00
2024-01-01T11:19:50.875Z,93683.00
2024-01-01T11:22:34.858Z,93683.00
2024-01-01T11:25:03.366Z,93680.00
2024-01-01T11:27:34.544Z,93682.00
2024-01-01T11:30:11.429Z,93678.00
2024-01-01T11:32:42.070Z,93672.00
2024-01-01T11:35:18.487Z,93674.00
2024-01-01T11:37:47.118Z,93665.00
2024-01-01T11:40:14.585Z,93665.00
2024-01-01T11:42:42.908Z,93668.00
2024-01-01T11:45:12.746Z,93670.00
2024-01-01T11:47:42.836Z,93665.00
2024-01-01T11:50:11.549Z,93677.00
2024-01-01T11:52:38.896Z,93668.00
2024-01-01T11:55:08.784Z,93678.00
2024-01-01T11:57:38.888Z,93657.00
2024-01-01T12:00:12.422Z,93681.00
2024-01-01T12:02:39.559Z,93680.00
2024-01-01T12:05:06.787Z,93667.00
2024-01-01T12:07:37.031Z,93667.00
2024-01-01T12:10:12.803Z,93670.00
2024-01-01T12:12:48.356Z,93666.00
2024-01-01T12:15:20.851Z,93667.00
2024-01-01T12:17:53.714Z,93666.00
2024-01-01T12:20:25.309Z,93667.00
2024-01-01T12:22:55.211Z,93663.00
2024-01-01T12:25:25.386Z,93663.00
2024-01-01T12:28:04.198Z,93670.00
2024-01-01T12:30:34.199Z,93673.00
2024-01-01T12:33:09.119Z,93674.00
2024-01-01T12:35:38.049Z,93672.00
2024-01-01T12:38:07.718Z,93666.00
2024-01-01T12:40:34.689Z,93668.00
2024-01-01T12:43:01.575Z,93658.00
2024-01-01T12:45:31.463Z,93652.00
2024-01-01T12:48:00.440Z,93654.00
2024-01-01T12:50:30.147Z,93651.00
2024-01-01T12:52:57.443Z,93651.00
2024-01-01T12:55:26.475Z,93647.00
2024-01-01T12:57:53.574Z,93655.00
2024-01-01T13:00:21.324Z,93654.00
2024-01-01T13:02:50.360Z,93647.00
2024-01-01T13:05:19.694Z,93639.00
2024-01-01T13:07:47.384Z,93644.00
2024-01-01T13:10:14.427Z,93640.00
2024-01-01T13:12:41.406Z,93641.00
2024-01-01T13:15:08.958Z,93643.00
2024-01-01T13:17:35.999Z,93636.00
2024-01-01T13:20:03.528Z,93647.00
2024-01-01T13:22:33.033Z,93640.00
2024-01-01T13:25:02.181Z,93638.00
2024-01-01T13:27:29.219Z,93634.00
2024-01-01T13:29:56.224Z,93640.00
2024-01-01T13:32:25.500Z,93640.00
2024-01-01T13:34:52.527Z,93655.00
2024-01-01T13:37:19.651Z,93655.00
2024-01-01T13:39:46.552Z,93664.00
2024-01-01T13:42:14.036Z,93663.00
2024-01-01T13:44:41.011Z,93657.00
2024-01-01T13:47:08.025Z,93651.00
2024-01-01T13:49:36.889Z,93652.00
2024-01-01T13:52:03.941Z,93665.00
2024-01-01T13:54:31.167Z,93658.00
2024-01-01T13:57:00.203Z,93666.00
2024-01-01T13:59:27.364Z,93664.00
2024-01-01T14:01:54.502Z,93663.00
2024-01-01T14:04:21.522Z,93658.00
2024-01-01T14:06:51.586Z,93660.00
2024-01-01T14:09:20.112Z,93666.00
2024-01-01T14:11:50.176Z,93666.00
2024-01-01T14:14:18.096Z,93663.00
2024-01-01T14:16:49.135Z,93670.00
2024-01-01T14:19:16.735Z,93670.00
2024-01-01T14:21:48.495Z,93667.00
2024-01-01T14:24:15.365Z,93671.00
2024-01-01T14:26:46.942Z,93638.00
2024-01-01T14:29:13.942Z,93671.00
2024-01-01T14:31:41.681Z,93667.00
2024-01-01T14:34:08.777Z,93668.00
2024-01-01T14:36:35.774Z,93666.00
2024-01-01T14:39:05.352Z,93666.00
2024-01-01T14:41:37.333Z,93664.00
2024-01-01T14:44:04.970Z,93667.00
2024-01-01T14:46:32.716Z,93673.00
2024-01-01T14:49:04.387Z,93670.00
2024-01-01T14:51:39.347Z,93671.00
2024-01-01T14:54:08.683Z,93671.00
2024-01-01T14:56:42.108Z,93668.00
2024-01-01T14:59:09.371Z,93666.00
2024-01-01T15:01:36.337Z,93647.00
2024-01-01T15:04:05.898Z,93653.00
2024-01-01T15:06:35.944Z,93654.00
2024-01-01T15:09:07.922Z,93658.00
2024-01-01T15:11:39.109Z,93667.00
2024-01-01T15:14:06.255Z,93659.00
2024-01-01T15:16:35.730Z,93654.00
2024-01-01T15:19:02.770Z,93666.00
2024-01-01T15:21:34.710Z,93679.00
2024-01-01T15:24:02.518Z,93688.00
2024-01-01T15:26:34.055Z,93698.00
2024-01-01T15:29:01.084Z,93698.00
2024-01-01T15:31:29.850Z,93711.00
2024-01-01T15:33:57.264Z,93714.00
2024-01-01T15:36:24.229Z,93717.00
2024-01-01T15:38:51.234Z,93718.00
2024-01-01T15:41:20.029Z,93723.00
2024-01-01T15:43:47.102Z,93731.00
2024-01-01T15:46:16.486Z,93729.00
2024-01-01T15:48:43.580Z,93729.00
2024-01-01T15:51:13.636Z,93735.00
2024-01-01T15:53:46.851Z,93730.00
2024-01-01T15:56:13.955Z,93742.00
2024-01-01T15:58:40.914Z,93748.00
2024-01-01T16:01:10.738Z,93752.00
2024-01-01T16:03:37.909Z,93751.00
2024-01-01T16:06:05.518Z,93765.00
2024-01-01T16:08:32.468Z,93762.00
2024-01-01T16:10:59.405Z,93767.00
2024-01-01T16:13:28.871Z,93773.00
2024-01-01T16:15:56.012Z,93769.00
2024-01-01T16:18:24.098Z,93772.00
2024-01-01T16:20:51.671Z,93773.00
2024-01-01T16:23:24.086Z,93773.00
2024-01-01T16:25:51.654Z,93777.00
2024-01-01T16:28:18.597Z,93779.00
2024-01-01T16:30:45.664Z,93775.00
2024-01-01T16:33:15.236Z,93782.00
2024-01-01T16:35:42.168Z,93779.00
2024-01-01T16:38:11.925Z,93779.00
2024-01-01T16:40:46.248Z,93777.00
2024-01-01T16:43:16.236Z,93780.00
2024-01-01T16:45:48.570Z,93776.00
2024-01-01T16:48:17.763Z,93778.00
2024-01-01T16:50:48.843Z,93776.00
2024-01-01T16:53:18.509Z,93771.00
2024-01-01T16:55:45.886Z,93779.00
2024-01-01T16:58:15.260Z,93785.00
2024-01-01T17:00:45.320Z,93793.00
2024-01-01T17:03:12.403Z,93782.00
2024-01-01T17:05:41.604Z,93782.00
2024-01-01T17:08:13.768Z,93783.00
2024-01-01T17:10:42.905Z,93782.00
2024-01-01T17:13:10.005Z,93791.00
2024-01-01T17:15:40.425Z,93793.00
2024-01-01T17:18:07.458Z,93795.00
2024-01-01T17:20:37.408Z,93783.00
2024-01-01T17:23:05.923Z,93793.00
2024-01-01T17:25:35.415Z,93792.00
2024-01-01T17:28:04.075Z,93782.00
2024-01-01T17:30:31.146Z,93777.00
2024-01-01T17:32:58.322Z,93785.00
2024-01-01T17:35:27.808Z,93799.00
2024-01-01T17:37:57.567Z,93787.00
2024-01-01T17:40:24.594Z,93787.00
2024-01-01T17:42:53.934Z,93797.00
2024-01-01T17:45:20.983Z,93802.00
2024-01-01T17:47:47.959Z,93789.00
2024-01-01T17:50:17.003Z,93786.00
2024-01-01T17:52:44.298Z,93795.00
2024-01-01T17:55:14.357Z,93787.00
2024-01-01T17:57:42.312Z,93792.00
2024-01-01T18:00:09.756Z,93798.00
2024-01-01T18:02:39.168Z,93797.00
2024-01-01T18:05:09.867Z,93794.00
2024-01-01T18:07:42.175Z,93797.00
2024-01-01T18:10:16.046Z,93797.00
2024-01-01T18:12:45.541Z,93787.00
2024-01-01T18:15:20.018Z,93790.00
2024-01-01T18:17:51.486Z,93802.00
2024-01-01T18:20:18.652Z,93806.00
2024-01-01T18:22:47.755Z,93821.00
2024-01-01T18:25:14.995Z,93811.00
2024-01-01T18:27:42.890Z,93809.00
2024-01-01T18:30:13.234Z,93810.00
2024-01-01T18:32:40.557Z,93803.00
2024-01-01T18:35:10.344Z,93791.00
2024-01-01T18:37:37.309Z,93805.00
2024-01-01T18:40:04.972Z,93803.00
2024-01-01T18:42:31.921Z,93806.00
2024-01-01T18:45:01.936Z,93810.00
2024-01-01T18:47:29.092Z,93796.00
2024-01-01T18:49:58.846Z,93803.00
2024-01-01T18:52:26.352Z,93800.00
2024-01-01T18:54:55.526Z,93804.00
2024-01-01T18:57:22.511Z,93812.00
2024-01-01T18:59:49.510Z,93817.00
2024-01-01T19:02:16.889Z,93809.00
2024-01-01T19:04:43.942Z,93783.00
2024-01-01T19:07:10.939Z,93809.00
2024-01-01T19:09:40.167Z,93809.00
2024-01-01T19:12:09.934Z,93821.00
2024-01-01T19:14:39.450Z,93821.00
2024-01-01T19:17:06.590Z,93823.00
2024-01-01T19:19:33.966Z,93819.00
2024-01-01T19:22:01.084Z,93820.00
2024-01-01T19:24:28.300Z,93821.00
2024-01-01T19:26:57.577Z,93822.00
2024-01-01T19:29:27.739Z,93817.00
2024-01-01T19:31:54.698Z,93813.00
2024-01-01T19:34:21.697Z,93805.00
2024-01-01T19:36:51.692Z,93799.00
2024-01-01T19:39:23.255Z,93804.00
2024-01-01T19:41:50.839Z,93812.00
2024-01-01T19:44:22.343Z,93808.00
2024-01-01T19:46:49.306Z,93811.00
2024-01-01T19:49:16.285Z,93793.00
2024-01-01T19:51:43.400Z,93790.00
2024-01-01T19:54:14.401Z,93794.00
2024-01-01T19:56:43.860Z,93793.00
2024-01-01T19:59:10.849Z,93789.00
2024-01-01T20:01:44.929Z,93779.00
2024-01-01T20:04:14.452Z,93788.00
2024-01-01T20:06:45.659Z,93792.00
2024-01-01T20:09:14.217Z,93784.00
2024-01-01T20:11:41.240Z,93787.00
2024-01-01T20:14:12.537Z,93788.00
2024-01-01T20:16:39.595Z,93786.00
2024-01-01T20:19:13.225Z,93788.00
2024-01-01T20:21:42.641Z,93787.00
2024-01-01T20:24:10.614Z,93785.00
2024-01-01T20:26:38.713Z,93792.00
2024-01-01T20:29:07.343Z,93786.00
2024-01-01T20:31:37.198Z,93779.00
2024-01-01T20:34:04.309Z,93778.00
2024-01-01T20:36:31.378Z,93773.00
2024-01-01T20:38:59.575Z,93778.00
2024-01-01T20:41:31.671Z,93770.00
2024-01-01T20:44:01.153Z,93769.00
2024-01-01T20:46:30.542Z,93767.00
2024-01-01T20:48:57.530Z,93760.00
2024-01-01T20:51:27.562Z,93757.00
2024-01-01T20:53:55.523Z,93763.00
2024-01-01T20:56:24.750Z,93759.00
2024-01-01T20:58:52.425Z,93747.00
2024-01-01T21:01:19.835Z,93748.00
2024-01-01T21:03:46.929Z,93736.00
2024-01-01T21:06:13.987Z,93731.00
2024-01-01T21:08:41.797Z,93720.00
2024-01-01T21:11:09.513Z,93719.00
2024-01-01T21:13:42.852Z,93716.00
2024-01-01T21:16:09.942Z,93715.00
2024-01-01T21:18:41.660Z,93706.00
2024-01-01T21:21:10.852Z,93705.00
2024-01-01T21:23:38.058Z,93695.00
2024-01-01T21:26:07.605Z,93691.00
2024-01-01T21:28:44.731Z,93685.00
2024-01-01T21:31:13.317Z,93684.00
2024-01-01T21:33:40.802Z,93672.00
2024-01-01T21:36:10.236Z,93672.00
2024-01-01T21:38:37.234Z,93671.00
2024-01-01T21:41:04.559Z,93667.00
2024-01-01T21:43:31.516Z,93668.00
2024-01-01T21:45:58.425Z,93671.00
2024-01-01T21:48:25.848Z,93659.00
2024-01-01T21:50:52.823Z,93659.00
2024-01-01T21:53:22.222Z,93660.00
2024-01-01T21:55:49.268Z,93659.00
2024-01-01T21:58:21.391Z,93658.00
2024-01-01T22:00:48.835Z,93666.00
2024-01-01T22:03:16.290Z,93660.00
2024-01-01T22:05:46.016Z,93655.00
2024-01-01T22:08:17.254Z,93677.00
2024-01-01T22:10:44.613Z,93668.00
2024-01-01T22:13:11.538Z,93666.00
2024-01-01T22:15:43.022Z,93658.00
2024-01-01T22:18:13.031Z,93663.00
2024-01-01T22:20:43.157Z,93648.00
2024-01-01T22:23:11.585Z,93640.00
2024-01-01T22:25:41.311Z,93643.00
2024-01-01T22:28:08.243Z,93646.00
2024-01-01T22:30:35.373Z,93646.00
2024-01-01T22:33:02.561Z,93647.00
2024-01-01T22:35:29.760Z,93642.00
2024-01-01T22:37:56.775Z,93647.00
2024-01-01T22:40:26.673Z,93648.00
2024-01-01T22:42:53.668Z,93652.00
2024-01-01T22:45:23.109Z,93645.00
2024-01-01T22:47:53.559Z,93654.00
2024-01-01T22:50:20.818Z,93657.00
2024-01-01T22:52:47.743Z,93653.00
2024-01-01T22:55:19.265Z,93654.00
2024-01-01T22:57:47.340Z,93655.00
2024-01-01T23:00:21.571Z,93660.00
2024-01-01T23:02:53.086Z,93659.00
2024-01-01T23:05:20.652Z,93646.00
2024-01-01T23:07:49.198Z,93638.00
2024-01-01T23:10:26.077Z,93637.00
2024-01-01T23:12:54.783Z,93630.00
2024-01-01T23:15:22.738Z,93629.00
2024-01-01T23:17:51.212Z,93638.00
2024-01-01T23:20:19.142Z,93630.00
2024-01-01T23:22:46.204Z,93621.00
2024-01-01T23:25:13.099Z,93623.00
2024-01-01T23:27:41.089Z,93639.00
2024-01-01T23:30:13.754Z,93624.00
2024-01-01T23:32:40.837Z,93634.00
2024-01-01T23:35:08.097Z,93635.00
2024-01-01T23:37:35.291Z,93618.00
2024-01-01T23:40:04.539Z,93631.00
2024-01-01T23:42:31.400Z,93629.00
2024-01-01T23:44:58.390Z,93625.00
2024-01-01T23:47:28.410Z,93616.00
2024-01-01T23:49:55.558Z,93605.00
2024-01-01T23:52:22.609Z,93600.00
2024-01-01T23:54:49.819Z,93605.00
2024-01-01T23:57:16.714Z,93597.00
2024-01-01T23:59:43.656Z,93592.00
